Flight Track Log - Related Links

Times and Time Zones

All times are in EDT time to prevent confusion due to time zone crossing. See the N10HQ flight status page for this flight to view local times or setup timezone preferences in your user account.

Time Position Orientation Groundspeed Altitude Reporting Facility
EDT Latitude Longitude Course Direction KTS MPH feet Rate Location/Type
Fri 03:18:05 PM 26.2114 -97.6506 92° East 165 190 900  Level Houston Center
Fri 03:19:17 PM 26.2097 -97.5883 92° East 258 297 3,500 2,776 Climbing Houston Center
Fri 03:20:19 PM 26.2894 -97.5617 17° North 285 328 7,100 3,581 Climbing Houston Center
Fri 03:21:21 PM 26.3711 -97.5556 North 292 336 10,900 3,726 Climbing Houston Center
Fri 03:22:23 PM 26.4625 -97.5489 North 307 353 14,800 3,532 Climbing Houston Center
Fri 03:23:25 PM 26.5489 -97.5428 North 309 356 18,200 2,832 Climbing Houston Center
Fri 03:24:28 PM 26.6461 -97.5314 North 326 375 20,700 2,256 Climbing Houston Center
Fri 03:25:30 PM 26.7111 -97.4522 47° Northeast 354 407 22,900 1,984 Climbing Houston Center
Fri 03:26:32 PM 26.7339 -97.3303 78° East 373 429 24,800 1,645 Climbing Houston Center
Fri 03:27:34 PM 26.7564 -97.2142 78° East 381 438 26,300 1,500 Climbing Houston Center
Fri 03:28:36 PM 26.7794 -97.0933 78° East 394 453 27,900 1,488 Climbing Houston Center
Fri 03:29:39 PM 26.8061 -96.9592 77° East 402 463 29,400 1,344 Climbing Houston Center
Fri 03:30:41 PM 26.8308 -96.8292 78° East 413 475 30,700 1,210 Climbing Houston Center
Fri 03:31:43 PM 26.8558 -96.6961 78° East 425 489 31,900 1,161 Climbing Houston Center
Fri 03:32:45 PM 26.8828 -96.5603 77° East 434 499 33,100 1,113 Climbing Houston Center
Fri 03:33:47 PM 26.9108 -96.4097 78° East 443 510 34,200 1,248 Climbing Houston Center
Fri 03:34:50 PM 26.9381 -96.2694 78° East 451 519 35,700 1,440 Climbing Houston Center
Fri 03:35:52 PM 26.9653 -96.1272 78° East 453 521 37,200 1,500 Climbing Houston Center
Fri 03:36:54 PM 26.9911 -95.9881 78° East 453 521 38,800 1,403 Climbing Houston Center
Fri 03:37:56 PM 27.0150 -95.8639 78° East 450 518 40,100 1,056 Climbing Houston Center
Fri 03:38:59 PM 27.0400 -95.7306 78° East 441 507 41,000 432 Climbing Houston Center
Fri 03:40:01 PM 27.0672 -95.5792 79° East 443 510 41,000  Level Houston Center
Fri 03:41:03 PM 27.0933 -95.4433 78° East 445 512 41,000  Level Houston Center
Fri 03:42:05 PM 27.1181 -95.3061 79° East 447 514 41,000 145 Level Houston Center
Fri 03:43:07 PM 27.1481 -95.1447 78° East 444 511 41,300 528 Climbing Houston Center
Fri 03:44:10 PM 27.1714 -95.0131 79° East 437 503 42,100 768 Climbing Houston Center
Fri 03:45:12 PM 27.1964 -94.8783 78° East 438 504 42,900 774 Climbing Houston Center
Fri 03:46:14 PM 27.2200 -94.7461 79° East 438 504 43,700 726 Climbing Houston Center
Fri 03:47:16 PM 27.2436 -94.6156 78° East 433 498 44,400 576 Climbing Houston Center
Fri 03:48:19 PM 27.2708 -94.4603 79° East 428 493 44,900 288 Climbing Houston Center
Fri 03:49:21 PM 27.2931 -94.3306 79° East 424 488 45,000 48 Climbing Houston Center
Fri 03:50:23 PM 27.3164 -94.1989 79° East 427 491 45,000  Level Houston Center
Fri 03:51:25 PM 27.3406 -94.0656 78° East 433 498 45,000  Level Houston Center
Fri 03:52:27 PM 27.3564 -93.9311 82° East 433 498 45,000  Level Houston Center
Fri 03:53:30 PM 27.3708 -93.7661 84° East 438 504 45,000  Level Houston Center
Fri 03:54:32 PM 27.3825 -93.6297 84° East 438 504 45,000  Level Houston Center
Fri 03:55:34 PM 27.3958 -93.4919 84° East 441 507 45,000  Level Houston Center
Fri 03:56:36 PM 27.3847 -93.3558 95° East 447 514 45,000  Level Houston Center
Fri 03:57:38 PM 27.3506 -93.2058 104° East 441 507 45,000  Level Houston Center
Fri 03:58:41 PM 27.3208 -93.0719 104° East 441 507 45,000  Level Houston Center
Fri 03:59:43 PM 27.2925 -92.9367 103° East 441 507 45,000  Level Houston Center
Fri 04:00:45 PM 27.2644 -92.8044 103° East 441 507 45,000  Level Houston Center
Fri 04:01:47 PM 27.2383 -92.6672 102° East 442 509 45,000  Level Houston Center
Fri 04:02:49 PM 27.2500 -92.5000 85° East 450 518 45,000 -48 Level Houston Center
Fri 04:03:52 PM 27.2642 -92.3661 83° East 447 514 44,900  Descending Houston Center
Fri 04:04:54 PM 27.2811 -92.2253 82° East 443 510 45,000 48 Climbing Houston Center
Fri 04:05:56 PM 27.2958 -92.0853 83° East 447 514 45,000 -48 Level Houston Center
Fri 04:06:58 PM 27.3119 -91.9439 83° East 453 521 44,900  Descending Houston Center
Fri 04:08:00 PM 27.3300 -91.7750 83° East 453 521 45,000 48 Climbing Houston Center
Fri 04:09:03 PM 27.3439 -91.6517 83° East 453 521 45,000  Level Houston Center
Fri 04:10:05 PM 27.3608 -91.4831 84° East 453 521 45,000  Level Houston Center
Fri 04:11:07 PM 27.3761 -91.3458 83° East 449 517 45,000  Level Houston Center
Fri 04:12:09 PM 27.3911 -91.2092 83° East 445 512 45,000  Level Houston Center
Fri 04:13:11 PM 27.4053 -91.0708 83° East 445 512 45,000  Level Houston Center
Fri 04:14:14 PM 27.4186 -90.9331 84° East 445 512 45,000  Level Houston Center
Fri 04:15:16 PM 27.4331 -90.7986 83° East 445 512 45,000 -48 Level Houston Center
Fri 04:16:18 PM 27.4497 -90.6333 83° East 445 512 44,900  Descending Houston Center
Fri 04:17:20 PM 27.4633 -90.4947 84° East 445 512 45,000 48 Climbing Houston Center
Fri 04:18:22 PM 27.4764 -90.3558 84° East 445 512 45,000  Level Houston Center
Fri 04:19:25 PM 27.4906 -90.2167 83° East 445 512 45,000  Level Houston Center
Fri 04:20:27 PM 27.5042 -90.0761 84° East 445 512 45,000  Level Houston Center
Fri 04:21:29 PM 27.5197 -89.9097 84° East 445 512 45,000  Level Houston Center
Fri 04:22:31 PM 27.5331 -89.7675 84° East 448 516 45,000  Level Houston Center
Fri 04:23:33 PM 27.5472 -89.6258 84° East 450 518 45,000  Level Houston Center
Fri 04:24:36 PM 27.5597 -89.4869 84° East 450 518 45,000  Level Houston Center
Fri 04:25:38 PM 27.5719 -89.3472 84° East 450 518 45,000  Level Houston Center
Fri 04:26:40 PM 27.5881 -89.1786 84° East 450 518 45,000  Level Houston Center
Fri 04:27:42 PM 27.6000 -89.0378 85° East 451 519 45,000  Level Houston Center
Fri 04:28:44 PM 27.6119 -88.8981 84° East 451 519 45,000  Level Houston Center
Fri 04:29:47 PM 27.6244 -88.7567 84° East 451 519 45,000  Level Houston Center
Fri 04:30:49 PM 27.6367 -88.6158 84° East 451 519 45,000  Level Houston Center
Fri 04:31:51 PM 27.6514 -88.4433 84° East 456 525 45,000  Level Houston Center
Fri 04:32:53 PM 27.6636 -88.3006 84° East 459 528 45,000 -48 Level Houston Center
Fri 04:33:55 PM 27.6756 -88.1564 85° East 459 528 44,900  Descending Houston Center
Fri 04:34:58 PM 27.6872 -88.0169 85° East 459 528 45,000 48 Climbing Houston Center
Fri 04:36:00 PM 27.6981 -87.8747 85° East 459 528 45,000  Level Houston Center
Fri 04:37:02 PM 27.7125 -87.7072 84° East 454 522 45,000  Level Houston Center
Fri 04:38:04 PM 27.7228 -87.5656 85° East 454 522 45,000  Level Houston Center
Fri 04:39:06 PM 27.7342 -87.4267 85° East 451 519 45,000  Level Houston Center
Fri 04:40:09 PM 27.7192 -87.2833 97° East 454 522 45,000  Level Houston Center
Fri 04:41:11 PM 27.6972 -87.1444 100° East 454 522 45,000  Level Houston Center
Fri 04:42:13 PM 27.6764 -87.0044 100° East 454 522 45,000  Level Houston Center
Fri 04:43:14 PM 27.6472 -86.8367 101° East 452 520 45,000  Level Jacksonville Center
Fri 04:44:13 PM 27.6264 -86.6978 100° East 449 517 45,000  Level Jacksonville Center
Fri 04:45:13 PM 27.6056 -86.5589 100° East 448 516 45,000  Level Jacksonville Center
Fri 04:46:14 PM 27.5861 -86.4294 100° East 436 502 45,000  Level Jacksonville Center
Fri 04:47:13 PM 27.5628 -86.2883 101° East 449 517 45,000  Level Jacksonville Center
Fri 04:48:13 PM 27.5392 -86.1494 101° East 449 517 45,000  Level Jacksonville Center
Fri 04:49:13 PM 27.5178 -86.0086 100° East 441 507 45,000  Level Jacksonville Center
Fri 04:51:11 PM 27.4786 -85.7508 100° East 451 519 45,000  Level Miami Center
Fri 04:52:13 PM 27.4550 -85.6128 101° East 451 519 45,000  Level Miami Center
Fri 04:53:15 PM 27.4339 -85.4775 100° East 447 514 45,000  Level Miami Center
Fri 04:54:17 PM 27.4069 -85.3150 101° East 444 511 45,000  Level Miami Center
Fri 04:55:19 PM 27.3828 -85.1803 101° East 442 509 45,000 -144 Level Miami Center
Fri 04:56:22 PM 27.3603 -85.0444 101° East 441 507 44,700 -1,248 Descending Miami Center
Fri 04:57:24 PM 27.3378 -84.9117 101° East 439 505 42,400 -2,323 Descending Miami Center
Fri 04:58:26 PM 27.3147 -84.7756 101° East 441 507 39,900 -2,661 Descending Miami Center
Fri 04:59:28 PM 27.2850 -84.6042 101° East 462 532 36,900 -2,710 Descending Miami Center
Fri 05:00:30 PM 27.2622 -84.4622 100° East 464 534 34,300 -2,613 Descending Miami Center
Fri 05:01:32 PM 27.2364 -84.3197 101° East 464 534 31,500 -2,758 Descending Miami Center
Fri 05:02:34 PM 27.2122 -84.1792 101° East 463 533 28,600 -2,784 Descending Miami Center
Fri 05:03:37 PM 27.1858 -84.0386 102° East 460 529 25,700 -2,784 Descending Miami Center
Fri 05:04:39 PM 27.1628 -83.8961 100° East 462 532 22,800 -2,323 Descending Miami Center
Fri 05:05:41 PM 27.1158 -83.7336 108° East 459 528 20,900 -871 Descending Miami Center
Fri 05:06:43 PM 27.0681 -83.6022 112° Southeast 455 524 21,000 48 Climbing Miami Center
Fri 05:07:45 PM 27.0197 -83.4703 112° Southeast 456 525 21,000  Level Miami Center
Fri 05:08:47 PM 26.9742 -83.3381 111° Southeast 456 525 21,000  Level Miami Center
Fri 05:09:49 PM 26.9272 -83.2047 112° Southeast 460 529 21,000 -145 Level Miami Center
Fri 05:10:51 PM 26.8731 -83.0461 111° Southeast 458 527 20,700 -1,440 Descending Miami Center
Fri 05:11:54 PM 26.8272 -82.9167 112° Southeast 451 519 18,000 -2,592 Descending Miami Center
Fri 05:12:56 PM 26.7842 -82.7914 111° Southeast 439 505 15,300 -2,661 Descending Miami Center
Fri 05:13:58 PM 26.7419 -82.6692 111° Southeast 426 490 12,500 -2,081 Descending Miami Center
Fri 05:15:00 PM 26.6953 -82.5369 112° Southeast 414 476 11,000 -726 Descending Miami Center
Fri 05:16:02 PM 26.6483 -82.4117 113° Southeast 411 473 11,000 -242 Level Miami Center
Fri 05:17:04 PM 26.5617 -82.3169 136° Southeast 408 470 10,500 -480 Descending Miami Center
Fri 05:18:07 PM 26.4864 -82.2633 147° Southeast 324 373 10,000 -1,200 Descending Miami Center
Fri 05:19:09 PM 26.4228 -82.2025 139° Southeast 284 327 8,000 -2,081 Descending Miami Center
Fri 05:20:11 PM 26.3669 -82.1425 136° Southeast 283 326 5,700 -1,452 Descending Miami Center
Fri 05:21:13 PM 26.3069 -82.0819 138° Southeast 272 313 5,000 -339 Descending Miami Center
Fri 05:22:15 PM 26.2525 -82.0264 138° Southeast 271 312 5,000 -339 Level Miami Center
Fri 05:23:17 PM 26.1986 -81.9714 138° Southeast 243 280 4,300 -677 Descending Miami Center
Fri 05:24:19 PM 26.1525 -81.9256 138° Southeast 212 244 3,600 -1,104 Descending Miami Center
Fri 05:25:22 PM 26.1189 -81.8903 137° Southeast 171 197 2,000 -1,008 Descending Miami Center
Fri 05:26:24 PM 26.1058 -81.8383 106° East 167 192 1,500 -581 Descending Miami Center
Fri 05:27:26 PM 26.1228 -81.8083 58° Northeast 119 137 800 -629 Descending Miami Center
Fri 05:28:28 PM 26.1447 -81.7844 44° Northeast 107 123 200 -581 Descending Miami Center
Fri 05:30:00 PM 26.1500 -81.7667 66° East  Level FlightAware Approximate

Login

Don't have an account? Register now (free) for customized features, flight alerts, and more!